createdAt,value
2023-03-06T00:01:00.323Z,17.40
2023-03-06T00:03:29.777Z,19.17
2023-03-06T00:05:59.919Z,15.85
2023-03-06T00:08:28.384Z,15.50
2023-03-06T00:10:56.290Z,18.52
2023-03-06T00:13:30.593Z,15.48
2023-03-06T00:16:02.614Z,19.77
2023-03-06T00:18:31.806Z,20.73
2023-03-06T00:21:00.954Z,19.80
2023-03-06T00:23:29.802Z,18.92
2023-03-06T00:25:56.445Z,18.13
2023-03-06T00:28:25.625Z,17.98
2023-03-06T00:30:52.275Z,18.10
2023-03-06T00:33:18.895Z,30.05
2023-03-06T00:35:45.592Z,17.45
2023-03-06T00:38:17.374Z,17.33
2023-03-06T00:40:44.160Z,19.67
2023-03-06T00:43:13.042Z,27.35
2023-03-06T00:45:39.939Z,19.98
2023-03-06T00:48:09.044Z,22.30
2023-03-06T00:50:36.184Z,20.63
2023-03-06T00:53:02.840Z,18.60
2023-03-06T00:55:30.869Z,18.35
2023-03-06T00:57:57.562Z,20.77
2023-03-06T01:00:26.759Z,19.00
2023-03-06T01:02:58.102Z,21.27
2023-03-06T01:05:26.878Z,19.55
2023-03-06T01:07:56.053Z,21.80
2023-03-06T01:10:25.313Z,21.25
2023-03-06T01:12:51.941Z,23.25
2023-03-06T01:15:19.034Z,24.10
2023-03-06T01:17:50.621Z,22.73
2023-03-06T01:20:18.868Z,27.00
2023-03-06T01:22:48.041Z,22.90
2023-03-06T01:25:18.066Z,25.23
2023-03-06T01:27:49.426Z,25.50
2023-03-06T01:30:16.373Z,22.88
2023-03-06T01:32:45.649Z,26.13
2023-03-06T01:35:13.069Z,27.50
2023-03-06T01:37:42.543Z,26.90
2023-03-06T01:40:15.028Z,25.35
2023-03-06T01:42:46.405Z,29.90
2023-03-06T01:45:13.455Z,27.05
2023-03-06T01:47:42.444Z,30.33
2023-03-06T01:50:11.632Z,28.17
2023-03-06T01:52:44.789Z,30.48
2023-03-06T01:55:24.779Z,29.45
2023-03-06T01:57:57.583Z,34.55
2023-03-06T02:00:30.049Z,31.35
2023-03-06T02:03:13.729Z,33.10
2023-03-06T02:05:42.330Z,32.92
2023-03-06T02:08:13.460Z,32.15
2023-03-06T02:11:00.718Z,32.70
2023-03-06T02:13:27.677Z,34.83
2023-03-06T02:15:54.496Z,32.88
2023-03-06T02:18:23.720Z,37.25
2023-03-06T02:20:59.214Z,35.92
2023-03-06T02:23:38.538Z,35.40
2023-03-06T02:26:08.886Z,34.50
2023-03-06T02:28:35.650Z,29.00
2023-03-06T02:31:04.862Z,36.03
2023-03-06T02:33:31.744Z,31.25
2023-03-06T02:36:07.541Z,31.38
2023-03-06T02:38:44.499Z,29.77
2023-03-06T02:41:11.243Z,35.20
2023-03-06T02:43:42.770Z,32.95
2023-03-06T02:46:12.362Z,34.03
2023-03-06T02:48:41.281Z,35.60
2023-03-06T02:51:10.076Z,34.38
2023-03-06T02:53:39.257Z,37.72
2023-03-06T02:56:06.360Z,34.28
2023-03-06T02:58:35.131Z,35.85
2023-03-06T03:01:01.822Z,35.53
2023-03-06T03:03:28.509Z,33.88
2023-03-06T03:06:00.130Z,33.28
2023-03-06T03:08:29.640Z,36.67
2023-03-06T03:10:57.076Z,36.47
2023-03-06T03:13:24.313Z,37.50
2023-03-06T03:16:09.019Z,39.45
2023-03-06T03:18:35.839Z,39.55
2023-03-06T03:21:08.862Z,39.13
2023-03-06T03:23:37.948Z,39.28
2023-03-06T03:26:18.848Z,38.20
2023-03-06T03:28:48.699Z,45.05
2023-03-06T03:31:17.564Z,41.47
2023-03-06T03:33:44.213Z,39.25
2023-03-06T03:36:15.341Z,38.00
2023-03-06T03:38:42.161Z,36.60
2023-03-06T03:41:10.965Z,39.05
2023-03-06T03:43:39.840Z,40.25
2023-03-06T03:46:06.580Z,41.20
2023-03-06T03:48:33.220Z,36.88
2023-03-06T03:51:10.317Z,39.50
2023-03-06T03:53:37.540Z,39.03
2023-03-06T03:56:04.883Z,39.30
2023-03-06T03:58:31.751Z,38.25
2023-03-06T04:01:00.721Z,41.38
2023-03-06T04:03:29.667Z,37.70
2023-03-06T04:05:57.880Z,43.40
2023-03-06T04:08:27.811Z,36.28
2023-03-06T04:10:55.148Z,40.13
2023-03-06T04:13:22.607Z,37.38
2023-03-06T04:15:50.920Z,39.40
2023-03-06T04:18:25.607Z,43.58
2023-03-06T04:20:52.692Z,45.00
2023-03-06T04:23:22.817Z,41.58
2023-03-06T04:25:49.809Z,43.92
2023-03-06T04:28:16.972Z,44.72
2023-03-06T04:30:43.641Z,42.70
2023-03-06T04:33:12.711Z,40.63
2023-03-06T04:35:41.576Z,41.38
2023-03-06T04:38:11.428Z,40.55
2023-03-06T04:40:44.822Z,41.85
2023-03-06T04:43:11.870Z,42.63
2023-03-06T04:45:38.627Z,40.00
2023-03-06T04:48:05.715Z,45.10
2023-03-06T04:50:32.492Z,43.88
2023-03-06T04:53:05.025Z,46.35
2023-03-06T04:55:35.023Z,46.88
2023-03-06T04:58:03.824Z,44.08
2023-03-06T05:00:31.548Z,48.92
2023-03-06T05:03:00.042Z,46.85
2023-03-06T05:05:33.834Z,43.33
2023-03-06T05:08:00.648Z,43.85
2023-03-06T05:10:29.934Z,47.55
2023-03-06T05:12:58.985Z,42.92
2023-03-06T05:15:25.612Z,49.90
2023-03-06T05:17:56.405Z,42.47
2023-03-06T05:20:23.040Z,43.40
2023-03-06T05:22:49.791Z,44.13
2023-03-06T05:25:18.611Z,44.70
2023-03-06T05:27:45.252Z,47.42
2023-03-06T05:30:13.932Z,46.80
2023-03-06T05:32:40.670Z,51.15
2023-03-06T05:35:07.861Z,42.40
2023-03-06T05:37:36.778Z,48.45
2023-03-06T05:40:09.454Z,43.03
2023-03-06T05:42:36.112Z,46.65
2023-03-06T05:45:04.463Z,48.88
2023-03-06T05:47:34.091Z,43.20
2023-03-06T05:50:00.713Z,51.25
2023-03-06T05:52:29.608Z,50.38
2023-03-06T05:54:58.615Z,50.10
2023-03-06T05:57:27.829Z,43.80
2023-03-06T05:59:54.524Z,46.13
2023-03-06T06:02:23.715Z,49.00
2023-03-06T06:04:52.828Z,49.22
2023-03-06T06:07:19.494Z,49.17
2023-03-06T06:09:46.227Z,46.25
2023-03-06T06:12:13.788Z,46.83
2023-03-06T06:14:42.771Z,42.25
2023-03-06T06:17:09.498Z,44.03
2023-03-06T06:19:36.181Z,41.80
2023-03-06T06:22:03.729Z,41.92
2023-03-06T06:24:31.406Z,41.85
2023-03-06T06:27:03.392Z,61.33
2023-03-06T06:29:30.572Z,37.83
2023-03-06T06:32:00.003Z,37.10
2023-03-06T06:34:27.578Z,45.75
2023-03-06T06:36:54.484Z,36.45
2023-03-06T06:39:25.062Z,36.50
2023-03-06T06:42:09.518Z,39.00
2023-03-06T06:44:39.724Z,39.58
2023-03-06T06:47:22.234Z,35.97
2023-03-06T06:49:53.918Z,37.22
2023-03-06T06:52:23.399Z,35.88
2023-03-06T06:54:52.388Z,39.45
2023-03-06T06:57:19.079Z,36.72
2023-03-06T06:59:45.861Z,37.78
2023-03-06T07:02:14.242Z,40.60
2023-03-06T07:05:02.629Z,37.40
2023-03-06T07:07:35.550Z,36.35
2023-03-06T07:10:09.519Z,36.83
2023-03-06T07:12:36.980Z,38.45
2023-03-06T07:15:07.978Z,44.05
2023-03-06T07:17:34.682Z,37.28
2023-03-06T07:20:01.353Z,38.03
2023-03-06T07:22:35.863Z,41.67
2023-03-06T07:25:10.975Z,38.67
2023-03-06T07:27:40.174Z,36.92
2023-03-06T07:30:11.958Z,38.30
2023-03-06T07:32:38.709Z,44.88
2023-03-06T07:35:19.457Z,43.10
2023-03-06T07:37:47.085Z,43.25
2023-03-06T07:40:13.822Z,45.53
2023-03-06T07:42:40.537Z,44.33
2023-03-06T07:45:08.929Z,44.65
2023-03-06T07:47:37.731Z,44.95
2023-03-06T07:50:07.770Z,48.35
2023-03-06T07:52:37.289Z,45.10
2023-03-06T07:55:04.263Z,45.25
2023-03-06T07:57:35.643Z,45.47
2023-03-06T08:00:05.797Z,45.08
2023-03-06T08:02:34.921Z,43.83
2023-03-06T08:05:01.620Z,43.95
2023-03-06T08:07:30.030Z,48.25
2023-03-06T08:09:56.683Z,51.28
2023-03-06T08:12:25.968Z,50.08
2023-03-06T08:14:52.706Z,53.40
2023-03-06T08:17:21.650Z,52.65
2023-03-06T08:19:50.418Z,49.03
2023-03-06T08:22:19.568Z,52.35
2023-03-06T08:24:46.194Z,46.38
2023-03-06T08:27:12.845Z,52.33
2023-03-06T08:29:39.497Z,42.78
2023-03-06T08:32:08.754Z,45.10
2023-03-06T08:34:35.509Z,47.72
2023-03-06T08:37:02.136Z,44.22
2023-03-06T08:39:28.848Z,43.72
2023-03-06T08:41:55.525Z,50.78
2023-03-06T08:44:24.660Z,42.88
2023-03-06T08:46:51.294Z,41.88
2023-03-06T08:49:17.967Z,49.25
2023-03-06T08:51:47.049Z,52.35
2023-03-06T08:54:18.405Z,42.08
2023-03-06T08:56:47.280Z,50.75
2023-03-06T08:59:14.148Z,43.50
2023-03-06T09:01:41.404Z,51.60
2023-03-06T09:04:12.943Z,45.50
2023-03-06T09:06:43.202Z,51.90
2023-03-06T09:09:12.328Z,42.92
2023-03-06T09:11:39.227Z,43.35
2023-03-06T09:14:06.226Z,42.67
2023-03-06T09:16:36.087Z,39.50
2023-03-06T09:19:02.794Z,44.15
2023-03-06T09:21:31.925Z,46.08
2023-03-06T09:23:59.547Z,44.33
2023-03-06T09:26:39.732Z,40.08
2023-03-06T09:29:16.451Z,40.60
2023-03-06T09:31:48.094Z,39.70
2023-03-06T09:34:17.582Z,43.08
2023-03-06T09:36:56.506Z,43.92
2023-03-06T09:39:25.728Z,46.92
2023-03-06T09:41:53.328Z,42.90
2023-03-06T09:44:34.427Z,42.60
2023-03-06T09:47:16.208Z,40.85
2023-03-06T09:50:09.725Z,37.22
2023-03-06T09:52:41.191Z,43.83
2023-03-06T09:55:12.884Z,38.40
2023-03-06T09:57:42.479Z,41.28
2023-03-06T10:00:16.484Z,43.45
2023-03-06T10:03:01.875Z,37.67
2023-03-06T10:05:45.474Z,34.92
2023-03-06T10:08:31.013Z,33.45
2023-03-06T10:11:12.297Z,36.38
2023-03-06T10:13:58.749Z,38.70
2023-03-06T10:16:31.209Z,38.80
2023-03-06T10:19:03.945Z,33.05
2023-03-06T10:21:45.620Z,38.00
2023-03-06T10:24:53.543Z,32.67
2023-03-06T10:27:44.589Z,30.90
2023-03-06T10:30:18.241Z,37.45
2023-03-06T10:32:58.383Z,33.13
2023-03-06T10:35:54.813Z,35.50
2023-03-06T10:38:25.938Z,33.63
2023-03-06T10:41:10.115Z,36.85
2023-03-06T10:43:39.309Z,33.83
2023-03-06T10:46:08.067Z,31.48
2023-03-06T10:48:36.436Z,32.63
2023-03-06T10:51:24.498Z,34.53
2023-03-06T10:54:18.020Z,33.22
2023-03-06T10:56:46.671Z,35.10
2023-03-06T10:59:13.298Z,36.97
2023-03-06T11:01:50.864Z,33.15
2023-03-06T11:04:20.666Z,37.97
2023-03-06T11:07:17.785Z,32.70
2023-03-06T11:10:01.746Z,34.65
2023-03-06T11:12:39.738Z,29.55
2023-03-06T11:15:18.533Z,32.10
2023-03-06T11:18:23.658Z,37.92
2023-03-06T11:20:53.468Z,29.63
2023-03-06T11:23:49.527Z,32.20
2023-03-06T11:26:16.373Z,37.47
2023-03-06T11:28:48.994Z,30.02
2023-03-06T11:31:33.504Z,31.70
2023-03-06T11:34:12.388Z,32.28
2023-03-06T11:36:49.851Z,28.35
2023-03-06T11:39:24.385Z,30.38
2023-03-06T11:42:03.285Z,26.67
2023-03-06T11:44:45.113Z,35.30
2023-03-06T11:47:26.603Z,24.52
2023-03-06T11:50:17.199Z,24.77
2023-03-06T11:52:54.640Z,28.92
2023-03-06T11:55:50.169Z,30.02
2023-03-06T11:58:52.250Z,25.38
2023-03-06T12:01:53.589Z,27.67
2023-03-06T12:04:28.668Z,24.58
2023-03-06T12:07:22.964Z,27.10
2023-03-06T12:10:14.452Z,32.15
2023-03-06T12:13:05.438Z,27.90
2023-03-06T12:16:04.945Z,28.35
2023-03-06T12:19:09.556Z,31.00
2023-03-06T12:22:04.257Z,31.73
2023-03-06T12:24:49.081Z,29.65
2023-03-06T12:27:24.543Z,32.13
2023-03-06T12:30:12.597Z,32.42
2023-03-06T12:32:45.070Z,27.95
2023-03-06T12:35:21.179Z,30.45
2023-03-06T12:37:56.847Z,29.80
2023-03-06T12:43:20.494Z,27.17
2023-03-06T12:45:51.450Z,32.13
2023-03-06T12:48:25.509Z,22.20
2023-03-06T12:50:55.207Z,27.25
2023-03-06T12:53:29.584Z,26.58
2023-03-06T12:55:58.265Z,22.58
2023-03-06T12:58:31.085Z,24.05
2023-03-06T13:01:26.594Z,26.52
2023-03-06T13:04:17.210Z,26.23
2023-03-06T13:07:14.671Z,25.02
2023-03-06T13:10:02.377Z,20.00
2023-03-06T13:12:49.767Z,23.85
2023-03-06T13:15:29.479Z,21.60
2023-03-06T13:17:58.985Z,27.92
2023-03-06T13:20:35.415Z,26.55
2023-03-06T13:23:27.423Z,28.23
2023-03-06T13:25:54.310Z,28.35
2023-03-06T13:28:25.451Z,33.85
2023-03-06T13:30:53.270Z,29.23
2023-03-06T13:33:37.595Z,29.52
2023-03-06T13:36:22.484Z,29.88
2023-03-06T13:38:51.790Z,37.22
2023-03-06T13:41:27.018Z,34.72
2023-03-06T13:43:58.527Z,36.20
2023-03-06T13:46:37.873Z,35.20
2023-03-06T13:49:07.611Z,34.00
2023-03-06T13:51:53.473Z,30.95
2023-03-06T13:54:38.674Z,28.92
2023-03-06T13:57:10.525Z,29.33
2023-03-06T13:59:57.010Z,29.45
2023-03-06T14:02:48.407Z,33.42
2023-03-06T14:05:19.444Z,28.58
2023-03-06T14:07:48.387Z,32.25
2023-03-06T14:10:24.461Z,33.03
2023-03-06T14:12:51.086Z,28.88
2023-03-06T14:15:28.211Z,28.13
2023-03-06T14:17:57.935Z,29.40
2023-03-06T14:20:33.161Z,29.48
2023-03-06T14:23:23.248Z,33.10
2023-03-06T14:26:21.836Z,29.70
2023-03-06T14:29:22.021Z,33.28
2023-03-06T14:31:57.365Z,27.17
2023-03-06T14:34:29.681Z,27.15
2023-03-06T14:37:02.062Z,28.55
2023-03-06T14:39:37.425Z,24.38
2023-03-06T14:42:18.600Z,24.10
2023-03-06T14:44:49.988Z,23.52
2023-03-06T14:47:33.911Z,25.40
2023-03-06T14:50:21.416Z,17.80
2023-03-06T14:52:50.354Z,21.50
2023-03-06T14:55:27.798Z,24.15
2023-03-06T14:58:02.249Z,22.10
2023-03-06T15:00:38.753Z,25.80
2023-03-06T15:03:16.310Z,28.92
2023-03-06T15:05:45.289Z,23.77
2023-03-06T15:08:19.562Z,24.45
2023-03-06T15:11:02.059Z,26.33
2023-03-06T15:13:32.966Z,26.02
2023-03-06T15:16:24.135Z,25.88
2023-03-06T15:19:16.992Z,25.42
2023-03-06T15:21:52.721Z,25.10
2023-03-06T15:27:03.488Z,23.98
2023-03-06T15:29:30.531Z,24.00
2023-03-06T15:32:13.747Z,20.42
2023-03-06T15:34:42.818Z,21.92
2023-03-06T15:37:33.818Z,21.42
2023-03-06T15:40:18.053Z,22.27
2023-03-06T15:42:47.297Z,19.75
2023-03-06T15:45:21.792Z,22.35
2023-03-06T15:47:50.645Z,21.42
2023-03-06T15:50:22.653Z,21.70
2023-03-06T15:52:49.929Z,23.27
2023-03-06T15:55:22.137Z,27.58
2023-03-06T15:58:02.011Z,25.05
2023-03-06T16:00:34.374Z,25.90
2023-03-06T16:03:02.902Z,22.42
2023-03-06T16:05:32.257Z,24.50
2023-03-06T16:07:58.947Z,20.90
2023-03-06T16:10:28.550Z,23.30
2023-03-06T16:13:06.165Z,20.40
2023-03-06T16:15:39.561Z,20.90
2023-03-06T16:18:10.299Z,23.98
2023-03-06T16:20:40.153Z,22.40
2023-03-06T16:23:10.273Z,25.05
2023-03-06T16:25:41.042Z,21.15
2023-03-06T16:28:17.782Z,20.13
2023-03-06T16:30:47.181Z,22.75
2023-03-06T16:33:14.435Z,26.00
2023-03-06T16:35:46.444Z,21.40
2023-03-06T16:38:13.431Z,20.65
2023-03-06T16:40:42.628Z,22.40
2023-03-06T16:43:10.832Z,26.15
2023-03-06T16:45:42.323Z,25.02
2023-03-06T16:48:18.709Z,24.52
2023-03-06T16:50:45.841Z,26.50
2023-03-06T16:53:15.275Z,27.95
2023-03-06T16:55:45.564Z,27.27
2023-03-06T16:58:12.316Z,24.48
2023-03-06T17:00:39.005Z,27.60
2023-03-06T17:03:06.194Z,23.65
2023-03-06T17:05:36.606Z,24.77
2023-03-06T17:08:06.457Z,26.38
2023-03-06T17:10:35.354Z,23.00
2023-03-06T17:13:05.174Z,29.35
2023-03-06T17:15:31.926Z,27.95
2023-03-06T17:17:58.742Z,31.83
2023-03-06T17:20:25.377Z,26.42
2023-03-06T17:22:52.179Z,28.77
2023-03-06T17:25:22.656Z,26.38
2023-03-06T17:27:51.651Z,26.73
2023-03-06T17:30:20.552Z,29.88
2023-03-06T17:32:47.235Z,29.95
2023-03-06T17:35:13.912Z,30.85
2023-03-06T17:37:43.159Z,29.20
2023-03-06T17:40:10.600Z,28.20
2023-03-06T17:42:39.447Z,33.90
2023-03-06T17:45:09.129Z,30.05
2023-03-06T17:47:38.373Z,29.08
2023-03-06T17:50:05.491Z,30.42
2023-03-06T17:52:32.225Z,30.55
2023-03-06T17:55:01.421Z,28.83
2023-03-06T17:57:30.205Z,32.97
2023-03-06T17:59:59.417Z,29.17
2023-03-06T18:02:26.188Z,32.78
2023-03-06T18:04:55.040Z,31.70
2023-03-06T18:07:22.093Z,29.77
2023-03-06T18:09:53.808Z,32.58
2023-03-06T18:12:25.292Z,34.85
2023-03-06T18:14:51.946Z,30.25
2023-03-06T18:17:18.762Z,25.92
2023-03-06T18:19:45.438Z,29.15
2023-03-06T18:22:14.188Z,32.08
2023-03-06T18:24:41.141Z,27.77
2023-03-06T18:27:10.290Z,27.63
2023-03-06T18:29:39.417Z,28.25
2023-03-06T18:32:10.527Z,30.77
2023-03-06T18:34:37.481Z,27.90
2023-03-06T18:37:04.147Z,25.95
2023-03-06T18:39:34.964Z,24.42
2023-03-06T18:42:01.775Z,29.65
2023-03-06T18:44:28.470Z,28.25
2023-03-06T18:46:57.478Z,30.55
2023-03-06T18:49:24.233Z,26.55
2023-03-06T18:51:51.027Z,24.92
2023-03-06T18:54:17.719Z,26.08
2023-03-06T18:56:44.618Z,28.35
2023-03-06T18:59:18.981Z,26.75
2023-03-06T19:01:49.172Z,26.10
2023-03-06T19:04:15.994Z,25.73
2023-03-06T19:06:45.113Z,28.80
2023-03-06T19:09:16.453Z,25.65
2023-03-06T19:11:48.540Z,26.33
2023-03-06T19:14:15.881Z,28.70
2023-03-06T19:16:45.014Z,29.45
2023-03-06T19:19:13.902Z,26.45
2023-03-06T19:21:42.841Z,25.00
2023-03-06T19:24:13.858Z,26.85
2023-03-06T19:26:46.170Z,23.90
2023-03-06T19:29:15.222Z,27.67
2023-03-06T19:31:46.683Z,28.05
2023-03-06T19:34:13.486Z,23.92
2023-03-06T19:36:40.815Z,26.08
2023-03-06T19:39:13.122Z,26.00
2023-03-06T19:41:39.822Z,25.88
2023-03-06T19:44:09.483Z,25.83
2023-03-06T19:46:36.280Z,29.55
2023-03-06T19:49:09.891Z,24.02
2023-03-06T19:51:39.011Z,30.45
2023-03-06T19:54:07.950Z,28.42
2023-03-06T19:56:36.849Z,26.08
2023-03-06T19:59:06.149Z,24.85
2023-03-06T20:01:35.024Z,26.15
2023-03-06T20:04:02.013Z,26.10
2023-03-06T20:06:36.610Z,27.65
2023-03-06T20:09:06.763Z,28.23
2023-03-06T20:11:33.661Z,28.80
2023-03-06T20:14:05.011Z,27.85
2023-03-06T20:16:35.322Z,30.02
2023-03-06T20:19:02.904Z,30.02
2023-03-06T20:21:37.393Z,27.48
2023-03-06T20:24:07.917Z,27.85
2023-03-06T20:26:39.241Z,29.13
2023-03-06T20:29:05.927Z,26.35
2023-03-06T20:31:37.496Z,26.45
2023-03-06T20:34:04.924Z,27.15
2023-03-06T20:36:35.478Z,27.20
2023-03-06T20:39:07.520Z,27.15
2023-03-06T20:41:41.338Z,24.95
2023-03-06T20:44:14.368Z,24.02
2023-03-06T20:46:41.313Z,27.40
2023-03-06T20:49:08.595Z,27.13
2023-03-06T20:51:41.496Z,25.75
2023-03-06T20:54:11.011Z,22.77
2023-03-06T20:56:39.535Z,27.65
2023-03-06T20:59:07.121Z,26.65
2023-03-06T21:01:42.016Z,27.52
2023-03-06T21:04:16.075Z,26.45
2023-03-06T21:06:46.299Z,26.65
2023-03-06T21:09:15.779Z,26.65
2023-03-06T21:11:42.933Z,26.63
2023-03-06T21:14:14.186Z,26.38
2023-03-06T21:16:41.533Z,23.90
2023-03-06T21:19:11.123Z,29.08
2023-03-06T21:21:40.178Z,27.13
2023-03-06T21:24:07.264Z,27.73
2023-03-06T21:26:34.036Z,30.50
2023-03-06T21:29:03.960Z,26.67
2023-03-06T21:31:31.854Z,29.85
2023-03-06T21:34:04.505Z,31.02
2023-03-06T21:36:31.603Z,29.95
2023-03-06T21:39:00.622Z,26.80
2023-03-06T21:41:30.267Z,30.88
2023-03-06T21:44:03.340Z,29.73
2023-03-06T21:46:30.550Z,29.48
2023-03-06T21:49:00.157Z,29.08
2023-03-06T21:51:29.086Z,29.38
2023-03-06T21:53:59.012Z,25.52
2023-03-06T21:56:28.216Z,27.50
2023-03-06T21:58:55.980Z,24.77
2023-03-06T22:01:27.439Z,30.25
2023-03-06T22:03:54.517Z,27.00
2023-03-06T22:06:26.145Z,29.55
2023-03-06T22:08:55.144Z,28.63
2023-03-06T22:11:23.546Z,32.38
2023-03-06T22:13:53.626Z,28.27
2023-03-06T22:16:22.678Z,27.50
2023-03-06T22:18:52.279Z,30.73
2023-03-06T22:21:21.354Z,30.50
2023-03-06T22:23:57.433Z,29.40
2023-03-06T22:26:25.174Z,26.65
2023-03-06T22:28:52.117Z,25.88
2023-03-06T22:31:23.680Z,27.73
2023-03-06T22:33:54.346Z,27.42
2023-03-06T22:36:23.719Z,23.27
2023-03-06T22:38:56.759Z,25.40
2023-03-06T22:41:26.675Z,24.98
2023-03-06T22:43:58.044Z,28.65
2023-03-06T22:46:27.335Z,24.73
2023-03-06T22:48:59.281Z,23.45
2023-03-06T22:51:29.811Z,24.15
2023-03-06T22:53:56.682Z,27.42
2023-03-06T22:56:26.042Z,26.52
2023-03-06T22:58:57.635Z,26.38
2023-03-06T23:01:30.816Z,26.67
2023-03-06T23:04:00.243Z,23.42
2023-03-06T23:06:26.848Z,24.35
2023-03-06T23:09:09.319Z,23.65
2023-03-06T23:11:40.958Z,24.35
2023-03-06T23:14:07.846Z,24.63
2023-03-06T23:16:34.474Z,25.65
2023-03-06T23:19:01.158Z,21.65
2023-03-06T23:21:27.845Z,23.92
2023-03-06T23:23:54.944Z,21.10
2023-03-06T23:26:28.929Z,22.85
2023-03-06T23:28:56.577Z,23.02
2023-03-06T23:31:30.736Z,20.85
2023-03-06T23:34:02.110Z,19.67
2023-03-06T23:36:29.838Z,18.58
2023-03-06T23:38:57.569Z,23.90
2023-03-06T23:41:24.761Z,18.58
2023-03-06T23:43:53.470Z,17.17
2023-03-06T23:46:26.005Z,15.13
2023-03-06T23:48:55.360Z,15.88
2023-03-06T23:51:22.823Z,15.15
2023-03-06T23:53:58.229Z,15.13
2023-03-06T23:56:26.717Z,14.40
2023-03-06T23:58:56.184Z,15.05
